createdAt,value
2023-02-22T00:01:29.992Z,100224.73
2023-02-22T00:03:59.869Z,100234.80
2023-02-22T00:06:31.128Z,100234.19
2023-02-22T00:09:02.731Z,100240.39
2023-02-22T00:11:34.209Z,100240.42
2023-02-22T00:14:04.000Z,100240.42
2023-02-22T00:16:33.872Z,100242.04
2023-02-22T00:19:05.283Z,100244.05
2023-02-22T00:21:34.049Z,100245.20
2023-02-22T00:24:05.696Z,100245.13
2023-02-22T00:26:35.475Z,100248.90
2023-02-22T00:29:06.526Z,100245.27
2023-02-22T00:31:39.513Z,100249.51
2023-02-22T00:34:09.404Z,100251.98
2023-02-22T00:36:39.185Z,100251.98
2023-02-22T00:39:09.544Z,100250.41
2023-02-22T00:41:40.681Z,100247.95
2023-02-22T00:44:10.604Z,100261.72
2023-02-22T00:46:40.738Z,100254.56
2023-02-22T00:49:10.185Z,100261.79
2023-02-22T00:51:40.768Z,100258.01
2023-02-22T00:54:10.640Z,100258.01
2023-02-22T00:56:41.767Z,100258.92
2023-02-22T00:59:11.280Z,100258.15
2023-02-22T01:01:41.238Z,100265.65
2023-02-22T01:04:11.103Z,100261.66
2023-02-22T01:06:41.135Z,100262.15
2023-02-22T01:09:10.832Z,100258.89
2023-02-22T01:11:41.529Z,100263.44
2023-02-22T01:14:11.670Z,100263.44
2023-02-22T01:16:41.643Z,100263.03
2023-02-22T01:19:12.293Z,100262.11
2023-02-22T01:21:42.481Z,100260.84
2023-02-22T01:24:13.964Z,100260.84
2023-02-22T01:26:46.821Z,100267.34
2023-02-22T01:29:20.499Z,100271.20
2023-02-22T01:31:55.858Z,100268.22
2023-02-22T01:34:26.444Z,100260.20
2023-02-22T01:36:56.590Z,100262.84
2023-02-22T01:39:26.475Z,100270.42
2023-02-22T01:41:56.879Z,100268.42
2023-02-22T01:44:36.290Z,100267.09
2023-02-22T01:47:09.909Z,100258.73
2023-02-22T01:49:48.886Z,100271.28
2023-02-22T01:52:21.520Z,100265.66
2023-02-22T01:54:54.328Z,100265.23
2023-02-22T01:57:27.190Z,100256.55
2023-02-22T02:00:00.044Z,100258.11
2023-02-22T02:02:30.569Z,100261.66
2023-02-22T02:05:06.216Z,100259.97
2023-02-22T02:07:40.809Z,100258.58
2023-02-22T02:10:14.514Z,100254.47
2023-02-22T02:12:47.380Z,100260.10
2023-02-22T02:15:31.474Z,100257.30
2023-02-22T02:18:07.708Z,100261.42
2023-02-22T02:21:14.421Z,100263.86
2023-02-22T02:24:10.312Z,100260.63
2023-02-22T02:27:00.230Z,100260.09
2023-02-22T02:29:48.039Z,100251.58
2023-02-22T02:32:49.704Z,100255.66
2023-02-22T02:35:31.258Z,100254.49
2023-02-22T02:38:07.073Z,100256.09
2023-02-22T02:40:54.759Z,100253.77
2023-02-22T02:43:49.625Z,100254.25
2023-02-22T02:46:37.695Z,100248.84
2023-02-22T02:49:16.416Z,100253.81
2023-02-22T02:51:50.019Z,100253.97
2023-02-22T02:54:22.991Z,100253.13
2023-02-22T02:56:55.599Z,100248.14
2023-02-22T02:59:31.564Z,100249.44
2023-02-22T03:02:22.307Z,100245.34
2023-02-22T03:04:55.194Z,100249.14
2023-02-22T03:08:02.377Z,100249.14
2023-02-22T03:10:37.151Z,100251.66
2023-02-22T03:13:32.290Z,100256.12
2023-02-22T03:16:05.454Z,100259.44
2023-02-22T03:18:41.753Z,100255.95
2023-02-22T03:21:14.517Z,100256.57
2023-02-22T03:24:02.309Z,100250.55
2023-02-22T03:26:45.261Z,100257.23
2023-02-22T03:29:17.980Z,100257.23
2023-02-22T03:31:50.892Z,100253.77
2023-02-22T03:34:25.380Z,100249.38
2023-02-22T03:37:03.445Z,100249.83
2023-02-22T03:39:36.054Z,100254.53
2023-02-22T03:42:09.521Z,100254.73
2023-02-22T03:44:41.830Z,100257.30
2023-02-22T03:47:14.711Z,100256.58
2023-02-22T03:49:56.009Z,100245.30
2023-02-22T03:52:25.883Z,100245.30
2023-02-22T03:54:56.845Z,100261.67
2023-02-22T03:57:29.658Z,100263.56
2023-02-22T04:00:09.676Z,100262.59
2023-02-22T04:02:46.668Z,100266.25
2023-02-22T04:05:18.023Z,100264.42
2023-02-22T04:07:48.391Z,100267.09
2023-02-22T04:10:18.357Z,100264.28
2023-02-22T04:12:48.373Z,100261.14
2023-02-22T04:15:21.876Z,100256.44
2023-02-22T04:17:53.292Z,100259.30
2023-02-22T04:20:24.901Z,100269.41
2023-02-22T04:22:59.531Z,100268.47
2023-02-22T04:25:30.270Z,100270.36
2023-02-22T04:28:01.772Z,100272.45
2023-02-22T04:30:35.698Z,100263.05
2023-02-22T04:33:06.267Z,100268.73
2023-02-22T04:35:36.179Z,100266.70
2023-02-22T04:38:08.875Z,100261.30
2023-02-22T04:40:39.649Z,100264.94
2023-02-22T04:43:10.303Z,100261.69
2023-02-22T04:45:40.358Z,100264.47
2023-02-22T04:48:10.531Z,100256.44
2023-02-22T04:50:40.632Z,100259.73
2023-02-22T04:53:12.170Z,100260.89
2023-02-22T04:55:41.795Z,100255.91
2023-02-22T04:58:11.547Z,100259.06
2023-02-22T05:00:41.332Z,100262.41
2023-02-22T05:03:11.307Z,100250.56
2023-02-22T05:05:41.157Z,100251.88
2023-02-22T05:08:11.101Z,100252.59
2023-02-22T05:10:40.880Z,100249.12
2023-02-22T05:13:10.720Z,100251.47
2023-02-22T05:15:40.484Z,100250.07
2023-02-22T05:18:10.116Z,100250.41
2023-02-22T05:20:39.970Z,100250.55
2023-02-22T05:23:09.817Z,100246.09
2023-02-22T05:25:39.888Z,100250.55
2023-02-22T05:28:14.836Z,100248.71
2023-02-22T05:30:44.789Z,100245.24
2023-02-22T05:33:14.667Z,100247.33
2023-02-22T05:35:44.512Z,100240.87
2023-02-22T05:38:15.917Z,100248.59
2023-02-22T05:40:45.688Z,100251.20
2023-02-22T05:43:15.802Z,100256.23
2023-02-22T05:45:45.571Z,100257.67
2023-02-22T05:48:15.439Z,100262.61
2023-02-22T05:50:45.266Z,100260.31
2023-02-22T05:53:14.993Z,100264.95
2023-02-22T05:55:46.449Z,100269.06
2023-02-22T05:58:16.451Z,100268.61
2023-02-22T06:00:46.222Z,100271.11
2023-02-22T06:03:15.907Z,100271.11
2023-02-22T06:05:45.833Z,100271.23
2023-02-22T06:08:17.689Z,100270.05
2023-02-22T06:10:47.536Z,100279.33
2023-02-22T06:13:17.319Z,100276.45
2023-02-22T06:15:47.468Z,100277.83
2023-02-22T06:18:16.997Z,100282.41
2023-02-22T06:20:46.762Z,100280.70
2023-02-22T06:23:16.382Z,100285.02
2023-02-22T06:25:46.136Z,100284.50
2023-02-22T06:28:16.091Z,100282.42
2023-02-22T06:30:46.389Z,100286.92
2023-02-22T06:33:16.018Z,100286.60
2023-02-22T06:35:46.783Z,100290.90
2023-02-22T06:38:18.222Z,100290.06
2023-02-22T06:40:48.015Z,100292.29
2023-02-22T06:43:17.787Z,100293.64
2023-02-22T06:45:47.647Z,100289.57
2023-02-22T06:48:17.216Z,100295.45
2023-02-22T06:50:47.102Z,100302.59
2023-02-22T06:53:16.957Z,100304.55
2023-02-22T06:55:46.743Z,100309.05
2023-02-22T06:58:16.649Z,100314.53
2023-02-22T07:00:46.759Z,100316.30
2023-02-22T07:03:17.045Z,100313.36
2023-02-22T07:05:46.917Z,100315.27
2023-02-22T07:08:16.742Z,100317.92
2023-02-22T07:10:46.513Z,100320.47
2023-02-22T07:13:16.355Z,100325.67
2023-02-22T07:15:46.118Z,100325.59
2023-02-22T07:18:16.250Z,100325.59
2023-02-22T07:20:45.978Z,100323.98
2023-02-22T07:23:16.977Z,100325.39
2023-02-22T07:25:48.605Z,100332.00
2023-02-22T07:28:18.498Z,100322.68
2023-02-22T07:30:48.377Z,100330.63
2023-02-22T07:33:18.095Z,100333.34
2023-02-22T07:35:50.862Z,100332.94
2023-02-22T07:38:21.579Z,100331.24
2023-02-22T07:40:51.389Z,100333.41
2023-02-22T07:43:24.040Z,100334.10
2023-02-22T07:46:00.018Z,100333.07
2023-02-22T07:48:32.002Z,100335.50
2023-02-22T07:51:21.551Z,100335.12
2023-02-22T07:53:51.382Z,100334.80
2023-02-22T07:56:20.972Z,100334.77
2023-02-22T07:58:50.789Z,100331.09
2023-02-22T08:01:20.676Z,100331.09
2023-02-22T08:03:50.591Z,100332.25
2023-02-22T08:06:21.099Z,100336.88
2023-02-22T08:08:50.652Z,100336.34
2023-02-22T08:11:20.238Z,100336.34
2023-02-22T08:13:50.028Z,100335.42
2023-02-22T08:16:19.548Z,100334.58
2023-02-22T08:18:49.321Z,100339.34
2023-02-22T08:21:19.531Z,100340.03
2023-02-22T08:23:55.379Z,100338.89
2023-02-22T08:26:25.453Z,100322.23
2023-02-22T08:28:54.975Z,100339.02
2023-02-22T08:31:24.881Z,100334.95
2023-02-22T08:33:54.691Z,100338.80
2023-02-22T08:36:24.248Z,100338.80
2023-02-22T08:38:54.215Z,100334.12
2023-02-22T08:41:23.757Z,100332.55
2023-02-22T08:43:53.610Z,100330.48
2023-02-22T08:46:23.419Z,100331.23
2023-02-22T08:48:53.953Z,100327.41
2023-02-22T08:51:23.513Z,100326.20
2023-02-22T08:53:53.500Z,100327.95
2023-02-22T08:56:23.384Z,100327.95
2023-02-22T08:58:53.302Z,100334.47
2023-02-22T09:01:32.781Z,100327.14
2023-02-22T09:03:59.175Z,100322.99
2023-02-22T09:06:30.150Z,100318.19
2023-02-22T09:08:59.832Z,100316.36
2023-02-22T09:11:29.734Z,100315.44
2023-02-22T09:13:59.681Z,100317.30
2023-02-22T09:16:29.525Z,100319.47
2023-02-22T09:18:59.404Z,100325.51
2023-02-22T09:21:29.241Z,100331.41
2023-02-22T09:24:01.357Z,100326.05
2023-02-22T09:26:31.136Z,100326.54
2023-02-22T09:29:00.953Z,100324.08
2023-02-22T09:31:30.799Z,100325.11
2023-02-22T09:34:02.691Z,100321.53
2023-02-22T09:36:32.079Z,100319.75
2023-02-22T09:39:02.048Z,100329.99
2023-02-22T09:41:36.226Z,100325.17
2023-02-22T09:44:13.651Z,100326.11
2023-02-22T09:46:45.861Z,100321.25
2023-02-22T09:49:19.567Z,100324.70
2023-02-22T09:52:11.527Z,100325.55
2023-02-22T09:54:48.908Z,100328.28
2023-02-22T09:57:21.742Z,100335.06
2023-02-22T10:00:16.600Z,100326.11
2023-02-22T10:02:55.170Z,100330.06
2023-02-22T10:05:31.061Z,100331.48
2023-02-22T10:08:06.931Z,100321.74
2023-02-22T10:10:40.136Z,100325.03
2023-02-22T10:13:32.264Z,100325.31
2023-02-22T10:16:19.893Z,100321.95
2023-02-22T10:19:00.133Z,100323.00
2023-02-22T10:21:49.309Z,100318.80
2023-02-22T10:24:56.916Z,100326.42
2023-02-22T10:27:36.037Z,100315.55
2023-02-22T10:30:25.949Z,100318.22
2023-02-22T10:33:07.645Z,100313.78
2023-02-22T10:35:38.317Z,100312.64
2023-02-22T10:38:20.344Z,100308.33
2023-02-22T10:40:54.735Z,100310.73
2023-02-22T10:43:25.801Z,100312.98
2023-02-22T10:46:01.693Z,100310.51
2023-02-22T10:48:35.368Z,100307.84
2023-02-22T10:51:08.722Z,100302.73
2023-02-22T10:53:39.435Z,100302.84
2023-02-22T10:56:27.621Z,100307.34
2023-02-22T10:59:04.330Z,100302.73
2023-02-22T11:01:43.056Z,100299.99
2023-02-22T11:04:21.775Z,100292.43
2023-02-22T11:07:04.938Z,100294.66
2023-02-22T11:09:52.995Z,100298.83
2023-02-22T11:12:40.068Z,100291.65
2023-02-22T11:15:24.566Z,100290.12
2023-02-22T11:17:59.112Z,100297.06
2023-02-22T11:20:38.483Z,100290.34
2023-02-22T11:23:08.431Z,100289.83
2023-02-22T11:25:42.430Z,100286.06
2023-02-22T11:28:15.369Z,100285.16
2023-02-22T11:30:48.369Z,100286.44
2023-02-22T11:33:22.883Z,100284.28
2023-02-22T11:35:59.390Z,100284.28
2023-02-22T11:38:38.277Z,100284.81
2023-02-22T11:41:10.833Z,100276.66
2023-02-22T11:43:40.854Z,100275.91
2023-02-22T11:46:19.928Z,100280.86
2023-02-22T11:48:58.746Z,100281.50
2023-02-22T11:51:31.601Z,100275.38
2023-02-22T11:54:09.695Z,100273.34
2023-02-22T11:56:45.741Z,100273.08
2023-02-22T11:59:34.303Z,100271.45
2023-02-22T12:02:24.870Z,100258.11
2023-02-22T12:05:03.155Z,100268.73
2023-02-22T12:07:54.640Z,100265.95
2023-02-22T12:10:27.469Z,100266.85
2023-02-22T12:13:13.175Z,100265.10
2023-02-22T12:16:04.079Z,100265.10
2023-02-22T12:18:45.741Z,100263.42
2023-02-22T12:21:18.174Z,100263.27
2023-02-22T12:23:53.655Z,100265.27
2023-02-22T12:26:35.739Z,100265.91
2023-02-22T12:29:09.867Z,100260.23
2023-02-22T12:31:44.483Z,100263.73
2023-02-22T12:34:32.039Z,100263.98
2023-02-22T12:37:16.816Z,100266.75
2023-02-22T12:39:55.196Z,100259.92
2023-02-22T12:42:36.876Z,100261.67
2023-02-22T12:45:11.353Z,100260.34
2023-02-22T12:47:44.442Z,100254.81
2023-02-22T12:50:23.423Z,100253.69
2023-02-22T12:53:02.143Z,100256.23
2023-02-22T12:55:42.238Z,100252.27
2023-02-22T12:58:27.066Z,100249.51
2023-02-22T13:01:07.030Z,100253.78
2023-02-22T13:03:42.773Z,100250.20
2023-02-22T13:06:33.072Z,100242.55
2023-02-22T13:09:23.592Z,100246.45
2023-02-22T13:12:14.111Z,100248.55
2023-02-22T13:14:55.085Z,100244.13
2023-02-22T13:17:31.129Z,100243.97
2023-02-22T13:20:09.859Z,100242.12
2023-02-22T13:22:51.057Z,100245.63
2023-02-22T13:25:43.238Z,100245.48
2023-02-22T13:28:35.716Z,100241.67
2023-02-22T13:31:09.388Z,100243.64
2023-02-22T13:33:57.469Z,100242.33
2023-02-22T13:36:39.273Z,100244.53
2023-02-22T13:39:28.701Z,100251.83
2023-02-22T13:42:22.661Z,100249.78
2023-02-22T13:45:28.643Z,100243.91
2023-02-22T13:48:04.540Z,100246.22
2023-02-22T13:50:46.372Z,100249.73
2023-02-22T13:53:24.756Z,100240.42
2023-02-22T13:55:58.414Z,100234.75
2023-02-22T13:58:28.690Z,100235.45
2023-02-22T14:01:01.080Z,100240.80
2023-02-22T14:03:41.883Z,100246.03
2023-02-22T14:06:11.695Z,100248.36
2023-02-22T14:08:42.411Z,100248.93
2023-02-22T14:11:21.139Z,100242.47
2023-02-22T14:14:01.128Z,100240.27
2023-02-22T14:16:33.982Z,100240.27
2023-02-22T14:19:07.055Z,100235.88
2023-02-22T14:21:37.018Z,100233.97
2023-02-22T14:24:12.907Z,100237.89
2023-02-22T14:26:45.765Z,100237.05
2023-02-22T14:29:21.601Z,100238.00
2023-02-22T14:31:54.583Z,100236.62
2023-02-22T14:34:42.227Z,100230.49
2023-02-22T14:37:25.214Z,100233.44
2023-02-22T14:40:05.339Z,100235.72
2023-02-22T14:42:37.397Z,100230.92
2023-02-22T14:45:12.952Z,100232.92
2023-02-22T14:47:49.707Z,100229.97
2023-02-22T14:50:48.727Z,100229.97
2023-02-22T14:53:30.207Z,100227.02
2023-02-22T14:56:09.105Z,100234.56
2023-02-22T14:58:46.020Z,100234.50
2023-02-22T15:01:44.312Z,100228.48
2023-02-22T15:04:22.231Z,100232.16
2023-02-22T15:06:54.118Z,100225.12
2023-02-22T15:09:31.764Z,100225.12
2023-02-22T15:12:10.765Z,100227.94
2023-02-22T15:14:43.859Z,100228.60
2023-02-22T15:17:22.247Z,100227.85
2023-02-22T15:19:54.977Z,100225.30
2023-02-22T15:22:27.979Z,100235.48
2023-02-22T15:25:09.491Z,100227.66
2023-02-22T15:27:41.067Z,100223.41
2023-02-22T15:30:20.196Z,100221.80
2023-02-22T15:33:03.084Z,100221.98
2023-02-22T15:35:30.562Z,100225.09
2023-02-22T15:38:09.041Z,100229.64
2023-02-22T15:40:40.579Z,100227.16
2023-02-22T15:43:10.914Z,100225.19
2023-02-22T15:45:42.373Z,100229.55
2023-02-22T15:48:12.805Z,100225.97
2023-02-22T15:51:03.662Z,100225.73
2023-02-22T15:53:40.200Z,100225.73
2023-02-22T15:56:19.187Z,100227.72
2023-02-22T15:58:49.377Z,100224.28
2023-02-22T16:01:21.417Z,100223.80
2023-02-22T16:03:57.181Z,100232.65
2023-02-22T16:06:41.645Z,100232.18
2023-02-22T16:09:21.449Z,100232.48
2023-02-22T16:11:53.209Z,100234.38
2023-02-22T16:14:34.529Z,100235.30
2023-02-22T16:17:25.881Z,100235.30
2023-02-22T16:19:56.485Z,100241.13
2023-02-22T16:22:34.715Z,100246.98
2023-02-22T16:25:23.221Z,100240.36
2023-02-22T16:28:03.134Z,100246.38
2023-02-22T16:30:39.500Z,100244.33
2023-02-22T16:33:13.160Z,100246.48
2023-02-22T16:35:44.922Z,100252.23
2023-02-22T16:38:16.083Z,100251.28
2023-02-22T16:40:55.250Z,100254.59
2023-02-22T16:43:29.455Z,100255.62
2023-02-22T16:46:01.017Z,100253.45
2023-02-22T16:48:33.524Z,100263.48
2023-02-22T16:51:09.061Z,100258.80
2023-02-22T16:53:39.239Z,100258.80
2023-02-22T16:56:11.762Z,100273.04
2023-02-22T16:58:43.109Z,100273.71
2023-02-22T17:01:13.023Z,100269.36
2023-02-22T17:03:43.029Z,100275.56
2023-02-22T17:06:13.421Z,100279.24
2023-02-22T17:08:44.063Z,100279.24
2023-02-22T17:11:15.096Z,100280.05
2023-02-22T17:13:46.548Z,100278.15
2023-02-22T17:16:16.924Z,100283.27
2023-02-22T17:18:46.749Z,100277.72
2023-02-22T17:21:16.756Z,100289.47
2023-02-22T17:23:46.625Z,100289.47
2023-02-22T17:26:17.884Z,100283.24
2023-02-22T17:28:47.850Z,100284.27
2023-02-22T17:31:26.429Z,100284.91
2023-02-22T17:34:03.403Z,100281.81
2023-02-22T17:36:36.406Z,100279.94
2023-02-22T17:39:09.080Z,100288.00
2023-02-22T17:41:40.678Z,100284.06
2023-02-22T17:44:10.798Z,100283.53
2023-02-22T17:46:42.296Z,100287.33
2023-02-22T17:49:14.141Z,100293.30
2023-02-22T17:51:45.886Z,100288.16
2023-02-22T17:54:15.365Z,100286.28
2023-02-22T17:56:45.520Z,100286.30
2023-02-22T17:59:15.288Z,100285.63
2023-02-22T18:01:45.236Z,100280.41
2023-02-22T18:04:15.152Z,100284.59
2023-02-22T18:06:46.309Z,100284.59
2023-02-22T18:09:17.800Z,100285.14
2023-02-22T18:11:47.725Z,100287.03
2023-02-22T18:14:17.291Z,100281.52
2023-02-22T18:16:48.484Z,100280.32
2023-02-22T18:19:20.453Z,100283.00
2023-02-22T18:21:50.360Z,100293.39
2023-02-22T18:24:20.145Z,100288.84
2023-02-22T18:26:50.406Z,100292.28
2023-02-22T18:29:20.048Z,100291.85
2023-02-22T18:31:49.934Z,100291.64
2023-02-22T18:34:22.624Z,100288.13
2023-02-22T18:36:53.976Z,100287.62
2023-02-22T18:39:23.761Z,100286.58
2023-02-22T18:41:53.571Z,100285.98
2023-02-22T18:44:23.172Z,100285.98
2023-02-22T18:46:54.119Z,100287.98
2023-02-22T18:49:25.558Z,100284.86
2023-02-22T18:51:55.370Z,100282.95
2023-02-22T18:54:25.220Z,100290.00
2023-02-22T18:56:55.197Z,100288.64
2023-02-22T18:59:24.804Z,100284.20
2023-02-22T19:01:54.698Z,100283.67
2023-02-22T19:04:25.401Z,100281.91
2023-02-22T19:06:58.061Z,100289.42
2023-02-22T19:09:27.975Z,100284.36
2023-02-22T19:11:57.784Z,100283.88
2023-02-22T19:14:27.577Z,100282.20
2023-02-22T19:16:59.044Z,100285.75
2023-02-22T19:19:30.451Z,100281.20
2023-02-22T19:22:00.338Z,100285.34
2023-02-22T19:24:32.274Z,100275.48
2023-02-22T19:27:02.524Z,100285.13
2023-02-22T19:29:32.163Z,100280.44
2023-02-22T19:32:02.087Z,100285.63
2023-02-22T19:34:31.940Z,100290.34
2023-02-22T19:37:02.210Z,100282.17
2023-02-22T19:39:32.627Z,100289.57
2023-02-22T19:42:03.942Z,100292.59
2023-02-22T19:44:33.813Z,100294.34
2023-02-22T19:47:05.248Z,100295.59
2023-02-22T19:49:36.612Z,100293.96
2023-02-22T19:52:09.745Z,100295.59
2023-02-22T19:54:39.610Z,100297.54
2023-02-22T19:57:09.405Z,100305.15
2023-02-22T19:59:39.385Z,100305.15
2023-02-22T20:02:11.937Z,100299.98
2023-02-22T20:04:43.073Z,100295.80
2023-02-22T20:07:13.824Z,100307.39
2023-02-22T20:09:44.400Z,100307.39
2023-02-22T20:12:13.984Z,100297.91
2023-02-22T20:14:43.969Z,100305.69
2023-02-22T20:17:13.553Z,100297.13
2023-02-22T20:19:43.397Z,100307.59
2023-02-22T20:22:13.279Z,100300.41
2023-02-22T20:24:43.107Z,100308.70
2023-02-22T20:27:13.037Z,100307.33
2023-02-22T20:29:42.857Z,100299.23
2023-02-22T20:32:15.463Z,100295.63
2023-02-22T20:34:49.057Z,100301.97
2023-02-22T20:37:18.927Z,100292.80
2023-02-22T20:39:48.810Z,100290.00
2023-02-22T20:42:18.980Z,100285.95
2023-02-22T20:44:52.672Z,100285.95
2023-02-22T20:47:22.557Z,100285.28
2023-02-22T20:49:53.349Z,100281.59
2023-02-22T20:52:23.250Z,100289.27
2023-02-22T20:54:53.234Z,100285.34
2023-02-22T20:57:23.090Z,100291.50
2023-02-22T20:59:52.948Z,100291.20
2023-02-22T21:02:23.005Z,100287.44
2023-02-22T21:04:52.891Z,100291.37
2023-02-22T21:07:22.687Z,100295.44
2023-02-22T21:09:52.624Z,100293.53
2023-02-22T21:12:23.196Z,100295.67
2023-02-22T21:14:53.164Z,100288.75
2023-02-22T21:17:24.540Z,100295.08
2023-02-22T21:19:55.451Z,100285.41
2023-02-22T21:22:25.565Z,100286.99
2023-02-22T21:24:55.121Z,100287.98
2023-02-22T21:27:24.952Z,100286.47
2023-02-22T21:29:56.384Z,100286.47
2023-02-22T21:32:26.480Z,100287.72
2023-02-22T21:34:56.055Z,100279.59
2023-02-22T21:37:25.916Z,100281.83
2023-02-22T21:39:55.738Z,100278.28
2023-02-22T21:42:25.623Z,100278.02
2023-02-22T21:44:56.415Z,100277.71
2023-02-22T21:47:26.280Z,100278.41
2023-02-22T21:49:56.104Z,100272.72
2023-02-22T21:52:25.930Z,100277.05
2023-02-22T21:54:55.755Z,100270.89
2023-02-22T21:57:26.246Z,100274.25
2023-02-22T21:59:55.844Z,100267.92
2023-02-22T22:02:25.753Z,100272.66
2023-02-22T22:04:57.471Z,100266.71
2023-02-22T22:07:28.958Z,100263.56
2023-02-22T22:09:58.865Z,100261.32
2023-02-22T22:12:38.808Z,100258.51
2023-02-22T22:15:00.204Z,100260.30
2023-02-22T22:17:30.098Z,100257.87
2023-02-22T22:19:59.892Z,100253.89
2023-02-22T22:22:29.711Z,100244.52
2023-02-22T22:24:59.504Z,100245.92
2023-02-22T22:27:29.326Z,100245.97
2023-02-22T22:30:01.042Z,100245.13
2023-02-22T22:32:30.799Z,100246.09
2023-02-22T22:35:01.369Z,100242.05
2023-02-22T22:37:31.676Z,100242.61
2023-02-22T22:40:01.747Z,100238.72
2023-02-22T22:42:31.579Z,100236.25
2023-02-22T22:45:01.657Z,100237.81
2023-02-22T22:47:31.798Z,100231.59
2023-02-22T22:50:01.699Z,100231.74
2023-02-22T22:52:33.438Z,100228.08
2023-02-22T22:55:03.679Z,100227.28
2023-02-22T22:57:33.870Z,100225.52
2023-02-22T23:00:05.338Z,100234.72
2023-02-22T23:02:35.268Z,100229.50
2023-02-22T23:05:08.321Z,100234.45
2023-02-22T23:07:38.213Z,100228.67
2023-02-22T23:10:09.579Z,100233.45
2023-02-22T23:12:39.765Z,100230.05
2023-02-22T23:15:09.911Z,100228.34
2023-02-22T23:17:42.875Z,100235.26
2023-02-22T23:20:13.463Z,100233.84
2023-02-22T23:22:44.630Z,100235.27
2023-02-22T23:25:15.928Z,100234.36
2023-02-22T23:27:45.923Z,100238.09
2023-02-22T23:30:18.693Z,100241.00
2023-02-22T23:32:49.502Z,100237.47
2023-02-22T23:35:19.934Z,100236.91
2023-02-22T23:37:57.385Z,100233.62
2023-02-22T23:40:29.133Z,100236.91
2023-02-22T23:43:00.592Z,100236.73
2023-02-22T23:45:32.288Z,100232.92
2023-02-22T23:48:02.278Z,100232.19
2023-02-22T23:50:34.429Z,100225.00
2023-02-22T23:53:05.898Z,100222.84
2023-02-22T23:55:36.307Z,100223.28
2023-02-22T23:58:06.882Z,100223.23
